sensor_id;sensor_type;location;lat;lon;timestamp;P1;durP1;ratioP1;P2;durP2;ratioP2
75687;SDS011;64300;45.034;38.910;2022-12-07T00:02:12;12.00;;;5.07;;
75687;SDS011;64300;45.034;38.910;2022-12-07T00:04:39;9.10;;;4.80;;
75687;SDS011;64300;45.034;38.910;2022-12-07T00:07:05;10.00;;;4.97;;
75687;SDS011;64300;45.034;38.910;2022-12-07T00:09:31;9.40;;;4.72;;
75687;SDS011;64300;45.034;38.910;2022-12-07T00:12:00;9.35;;;4.78;;
75687;SDS011;64300;45.034;38.910;2022-12-07T00:14:25;5.53;;;2.85;;
75687;SDS011;64300;45.034;38.910;2022-12-07T00:20:42;9.45;;;4.43;;
75687;SDS011;64300;45.034;38.910;2022-12-07T00:23:22;10.52;;;4.95;;
75687;SDS011;64300;45.034;38.910;2022-12-07T00:25:53;10.57;;;4.05;;
75687;SDS011;64300;45.034;38.910;2022-12-07T00:28:22;9.32;;;4.85;;
75687;SDS011;64300;45.034;38.910;2022-12-07T00:34:15;7.32;;;4.00;;
75687;SDS011;64300;45.034;38.910;2022-12-07T00:36:42;11.43;;;5.07;;
75687;SDS011;64300;45.034;38.910;2022-12-07T00:39:09;10.05;;;5.10;;
75687;SDS011;64300;45.034;38.910;2022-12-07T00:41:35;10.07;;;4.97;;
75687;SDS011;64300;45.034;38.910;2022-12-07T00:44:01;9.60;;;4.40;;
75687;SDS011;64300;45.034;38.910;2022-12-07T00:46:27;6.85;;;3.78;;
75687;SDS011;64300;45.034;38.910;2022-12-07T00:48:53;13.55;;;5.80;;
75687;SDS011;64300;45.034;38.910;2022-12-07T00:53:46;9.13;;;4.53;;
75687;SDS011;64300;45.034;38.910;2022-12-07T00:56:20;8.07;;;4.13;;
75687;SDS011;64300;45.034;38.910;2022-12-07T00:58:54;9.75;;;3.88;;
75687;SDS011;64300;45.034;38.910;2022-12-07T01:01:22;8.90;;;4.80;;
75687;SDS011;64300;45.034;38.910;2022-12-07T01:03:49;7.93;;;4.28;;
75687;SDS011;64300;45.034;38.910;2022-12-07T01:08:45;6.88;;;3.60;;
75687;SDS011;64300;45.034;38.910;2022-12-07T01:11:15;10.00;;;5.47;;
75687;SDS011;64300;45.034;38.910;2022-12-07T01:16:11;8.50;;;4.68;;
75687;SDS011;64300;45.034;38.910;2022-12-07T01:18:45;9.02;;;4.30;;
75687;SDS011;64300;45.034;38.910;2022-12-07T01:21:15;9.30;;;5.00;;
75687;SDS011;64300;45.034;38.910;2022-12-07T01:23:46;11.65;;;4.88;;
75687;SDS011;64300;45.034;38.910;2022-12-07T01:26:18;9.38;;;4.47;;
75687;SDS011;64300;45.034;38.910;2022-12-07T01:28:46;10.07;;;4.60;;
75687;SDS011;64300;45.034;38.910;2022-12-07T01:33:46;10.40;;;4.40;;
75687;SDS011;64300;45.034;38.910;2022-12-07T01:38:46;10.63;;;5.10;;
75687;SDS011;64300;45.034;38.910;2022-12-07T01:41:21;9.95;;;4.60;;
75687;SDS011;64300;45.034;38.910;2022-12-07T01:47:02;7.82;;;3.63;;
75687;SDS011;64300;45.034;38.910;2022-12-07T01:55:00;9.13;;;4.25;;
75687;SDS011;64300;45.034;38.910;2022-12-07T01:57:47;10.38;;;5.07;;
75687;SDS011;64300;45.034;38.910;2022-12-07T02:00:18;7.35;;;3.55;;
75687;SDS011;64300;45.034;38.910;2022-12-07T02:02:59;9.15;;;4.60;;
75687;SDS011;64300;45.034;38.910;2022-12-07T02:05:31;9.70;;;4.85;;
75687;SDS011;64300;45.034;38.910;2022-12-07T02:07:58;11.88;;;4.60;;
75687;SDS011;64300;45.034;38.910;2022-12-07T03:08:21;8.43;;;4.28;;
75687;SDS011;64300;45.034;38.910;2022-12-07T03:10:56;8.65;;;3.70;;
75687;SDS011;64300;45.034;38.910;2022-12-07T03:16:23;9.05;;;4.18;;
75687;SDS011;64300;45.034;38.910;2022-12-07T03:19:08;9.18;;;4.65;;
75687;SDS011;64300;45.034;38.910;2022-12-07T03:22:00;8.38;;;3.67;;
75687;SDS011;64300;45.034;38.910;2022-12-07T03:24:34;7.90;;;3.97;;
75687;SDS011;64300;45.034;38.910;2022-12-07T03:27:15;7.65;;;4.22;;
75687;SDS011;64300;45.034;38.910;2022-12-07T03:29:55;9.05;;;4.47;;
75687;SDS011;64300;45.034;38.910;2022-12-07T03:32:28;7.63;;;4.05;;
75687;SDS011;64300;45.034;38.910;2022-12-07T03:35:05;22.42;;;3.92;;
75687;SDS011;64300;45.034;38.910;2022-12-07T03:42:53;13.10;;;5.18;;
75687;SDS011;64300;45.034;38.910;2022-12-07T03:45:22;9.30;;;3.25;;
75687;SDS011;64300;45.034;38.910;2022-12-07T03:47:54;8.60;;;3.65;;
75687;SDS011;64300;45.034;38.910;2022-12-07T03:55:54;8.07;;;3.67;;
75687;SDS011;64300;45.034;38.910;2022-12-07T03:58:25;10.63;;;4.65;;
75687;SDS011;64300;45.034;38.910;2022-12-07T04:00:52;10.57;;;4.57;;
75687;SDS011;64300;45.034;38.910;2022-12-07T04:03:18;9.77;;;4.53;;
75687;SDS011;64300;45.034;38.910;2022-12-07T04:05:44;10.07;;;4.43;;
75687;SDS011;64300;45.034;38.910;2022-12-07T04:08:10;10.38;;;4.00;;
75687;SDS011;64300;45.034;38.910;2022-12-07T04:10:36;8.88;;;4.15;;
75687;SDS011;64300;45.034;38.910;2022-12-07T04:13:05;11.40;;;4.30;;
75687;SDS011;64300;45.034;38.910;2022-12-07T04:15:31;9.48;;;4.43;;
75687;SDS011;64300;45.034;38.910;2022-12-07T04:17:57;9.95;;;4.50;;
75687;SDS011;64300;45.034;38.910;2022-12-07T04:20:23;8.48;;;4.28;;
75687;SDS011;64300;45.034;38.910;2022-12-07T04:22:49;8.98;;;4.20;;
75687;SDS011;64300;45.034;38.910;2022-12-07T04:25:15;10.18;;;4.82;;
75687;SDS011;64300;45.034;38.910;2022-12-07T04:27:41;10.32;;;4.65;;
75687;SDS011;64300;45.034;38.910;2022-12-07T04:30:07;12.02;;;4.93;;
75687;SDS011;64300;45.034;38.910;2022-12-07T04:34:59;8.25;;;3.80;;
75687;SDS011;64300;45.034;38.910;2022-12-07T04:37:25;7.45;;;3.78;;
75687;SDS011;64300;45.034;38.910;2022-12-07T04:39:51;10.30;;;5.28;;
75687;SDS011;64300;45.034;38.910;2022-12-07T04:42:23;9.35;;;4.03;;
75687;SDS011;64300;45.034;38.910;2022-12-07T04:45:07;11.70;;;4.47;;
75687;SDS011;64300;45.034;38.910;2022-12-07T04:47:34;11.77;;;4.70;;
75687;SDS011;64300;45.034;38.910;2022-12-07T04:57:22;9.55;;;4.18;;
75687;SDS011;64300;45.034;38.910;2022-12-07T05:03:44;15.48;;;4.32;;
75687;SDS011;64300;45.034;38.910;2022-12-07T05:10:17;11.98;;;5.03;;
75687;SDS011;64300;45.034;38.910;2022-12-07T05:12:43;16.52;;;4.40;;
75687;SDS011;64300;45.034;38.910;2022-12-07T05:15:11;19.92;;;5.10;;
75687;SDS011;64300;45.034;38.910;2022-12-07T05:17:38;10.35;;;4.72;;
75687;SDS011;64300;45.034;38.910;2022-12-07T05:20:04;11.77;;;5.47;;
75687;SDS011;64300;45.034;38.910;2022-12-07T05:22:30;11.65;;;5.00;;
75687;SDS011;64300;45.034;38.910;2022-12-07T05:24:56;13.82;;;5.00;;
75687;SDS011;64300;45.034;38.910;2022-12-07T05:27:22;11.70;;;5.40;;
75687;SDS011;64300;45.034;38.910;2022-12-07T05:29:51;12.48;;;5.88;;
75687;SDS011;64300;45.034;38.910;2022-12-07T05:32:20;12.50;;;5.53;;
75687;SDS011;64300;45.034;38.910;2022-12-07T05:34:46;12.13;;;5.70;;
75687;SDS011;64300;45.034;38.910;2022-12-07T05:37:12;12.02;;;5.55;;
75687;SDS011;64300;45.034;38.910;2022-12-07T05:39:38;12.95;;;5.63;;
75687;SDS011;64300;45.034;38.910;2022-12-07T05:42:08;16.60;;;5.63;;
75687;SDS011;64300;45.034;38.910;2022-12-07T05:44:39;12.45;;;5.82;;
75687;SDS011;64300;45.034;38.910;2022-12-07T05:47:06;12.93;;;5.80;;
75687;SDS011;64300;45.034;38.910;2022-12-07T05:49:32;12.90;;;5.95;;
75687;SDS011;64300;45.034;38.910;2022-12-07T05:51:58;14.48;;;5.90;;
75687;SDS011;64300;45.034;38.910;2022-12-07T05:54:42;10.77;;;5.35;;
75687;SDS011;64300;45.034;38.910;2022-12-07T05:57:19;16.45;;;5.90;;
75687;SDS011;64300;45.034;38.910;2022-12-07T05:59:46;18.38;;;5.68;;
75687;SDS011;64300;45.034;38.910;2022-12-07T06:02:13;12.60;;;6.15;;
75687;SDS011;64300;45.034;38.910;2022-12-07T06:12:35;11.63;;;5.25;;
75687;SDS011;64300;45.034;38.910;2022-12-07T06:15:06;13.50;;;5.97;;
75687;SDS011;64300;45.034;38.910;2022-12-07T06:17:51;14.35;;;5.75;;
75687;SDS011;64300;45.034;38.910;2022-12-07T06:20:22;11.65;;;5.57;;
75687;SDS011;64300;45.034;38.910;2022-12-07T06:22:51;13.55;;;5.85;;
75687;SDS011;64300;45.034;38.910;2022-12-07T06:25:17;17.00;;;6.32;;
75687;SDS011;64300;45.034;38.910;2022-12-07T06:27:46;13.35;;;6.28;;
75687;SDS011;64300;45.034;38.910;2022-12-07T06:30:13;12.25;;;5.07;;
75687;SDS011;64300;45.034;38.910;2022-12-07T06:32:39;17.77;;;6.25;;
75687;SDS011;64300;45.034;38.910;2022-12-07T06:35:05;11.60;;;5.35;;
75687;SDS011;64300;45.034;38.910;2022-12-07T06:37:32;13.95;;;5.75;;
75687;SDS011;64300;45.034;38.910;2022-12-07T06:40:00;12.07;;;5.57;;
75687;SDS011;64300;45.034;38.910;2022-12-07T06:42:34;15.35;;;6.25;;
75687;SDS011;64300;45.034;38.910;2022-12-07T06:45:36;16.15;;;6.00;;
75687;SDS011;64300;45.034;38.910;2022-12-07T06:48:50;22.67;;;6.90;;
75687;SDS011;64300;45.034;38.910;2022-12-07T06:51:16;15.48;;;6.30;;
75687;SDS011;64300;45.034;38.910;2022-12-07T06:53:41;14.45;;;6.35;;
75687;SDS011;64300;45.034;38.910;2022-12-07T06:56:07;16.55;;;7.07;;
75687;SDS011;64300;45.034;38.910;2022-12-07T06:58:33;12.82;;;6.40;;
75687;SDS011;64300;45.034;38.910;2022-12-07T07:00:59;13.30;;;6.20;;
75687;SDS011;64300;45.034;38.910;2022-12-07T07:03:25;20.27;;;7.03;;
75687;SDS011;64300;45.034;38.910;2022-12-07T07:05:51;21.55;;;7.05;;
75687;SDS011;64300;45.034;38.910;2022-12-07T07:08:17;20.20;;;6.60;;
75687;SDS011;64300;45.034;38.910;2022-12-07T07:13:09;17.25;;;6.05;;
75687;SDS011;64300;45.034;38.910;2022-12-07T07:15:38;19.50;;;6.97;;
75687;SDS011;64300;45.034;38.910;2022-12-07T07:18:05;15.50;;;5.80;;
75687;SDS011;64300;45.034;38.910;2022-12-07T07:20:31;12.85;;;5.70;;
75687;SDS011;64300;45.034;38.910;2022-12-07T07:22:57;14.15;;;5.82;;
75687;SDS011;64300;45.034;38.910;2022-12-07T07:25:23;27.40;;;6.40;;
75687;SDS011;64300;45.034;38.910;2022-12-07T07:27:49;15.18;;;5.95;;
75687;SDS011;64300;45.034;38.910;2022-12-07T07:30:33;15.05;;;5.32;;
75687;SDS011;64300;45.034;38.910;2022-12-07T07:37:15;19.23;;;7.95;;
75687;SDS011;64300;45.034;38.910;2022-12-07T07:39:41;14.77;;;6.97;;
75687;SDS011;64300;45.034;38.910;2022-12-07T07:42:10;22.48;;;7.03;;
75687;SDS011;64300;45.034;38.910;2022-12-07T07:44:37;20.15;;;6.90;;
75687;SDS011;64300;45.034;38.910;2022-12-07T07:47:04;17.40;;;8.15;;
75687;SDS011;64300;45.034;38.910;2022-12-07T07:49:30;20.27;;;7.20;;
75687;SDS011;64300;45.034;38.910;2022-12-07T07:51:56;17.88;;;7.78;;
75687;SDS011;64300;45.034;38.910;2022-12-07T07:54:22;16.17;;;7.75;;
75687;SDS011;64300;45.034;38.910;2022-12-07T07:56:48;17.75;;;7.90;;
75687;SDS011;64300;45.034;38.910;2022-12-07T07:59:14;19.60;;;8.45;;
75687;SDS011;64300;45.034;38.910;2022-12-07T08:01:40;16.60;;;6.57;;
75687;SDS011;64300;45.034;38.910;2022-12-07T08:04:07;18.48;;;7.65;;
75687;SDS011;64300;45.034;38.910;2022-12-07T08:06:33;19.35;;;7.88;;
75687;SDS011;64300;45.034;38.910;2022-12-07T08:08:59;12.30;;;6.30;;
75687;SDS011;64300;45.034;38.910;2022-12-07T08:11:25;17.98;;;8.32;;
75687;SDS011;64300;45.034;38.910;2022-12-07T08:13:51;14.75;;;6.90;;
75687;SDS011;64300;45.034;38.910;2022-12-07T08:16:17;16.73;;;7.82;;
75687;SDS011;64300;45.034;38.910;2022-12-07T08:18:43;20.88;;;8.13;;
75687;SDS011;64300;45.034;38.910;2022-12-07T08:21:10;17.80;;;8.40;;
75687;SDS011;64300;45.034;38.910;2022-12-07T08:23:38;18.02;;;7.22;;
75687;SDS011;64300;45.034;38.910;2022-12-07T08:26:05;12.35;;;6.10;;
75687;SDS011;64300;45.034;38.910;2022-12-07T08:28:33;17.23;;;8.15;;
75687;SDS011;64300;45.034;38.910;2022-12-07T08:31:00;18.40;;;8.05;;
75687;SDS011;64300;45.034;38.910;2022-12-07T08:33:27;16.42;;;6.88;;
75687;SDS011;64300;45.034;38.910;2022-12-07T08:39:40;17.95;;;6.88;;
75687;SDS011;64300;45.034;38.910;2022-12-07T08:42:15;16.77;;;7.70;;
75687;SDS011;64300;45.034;38.910;2022-12-07T08:44:45;14.60;;;7.78;;
75687;SDS011;64300;45.034;38.910;2022-12-07T09:05:40;18.98;;;7.65;;
75687;SDS011;64300;45.034;38.910;2022-12-07T09:11:31;18.58;;;8.27;;
75687;SDS011;64300;45.034;38.910;2022-12-07T09:14:38;16.80;;;7.57;;
75687;SDS011;64300;45.034;38.910;2022-12-07T09:17:05;18.58;;;7.15;;
75687;SDS011;64300;45.034;38.910;2022-12-07T09:19:32;21.08;;;8.10;;
75687;SDS011;64300;45.034;38.910;2022-12-07T09:21:58;21.00;;;8.68;;
75687;SDS011;64300;45.034;38.910;2022-12-07T09:24:24;17.77;;;8.07;;
75687;SDS011;64300;45.034;38.910;2022-12-07T09:26:49;19.17;;;7.82;;
75687;SDS011;64300;45.034;38.910;2022-12-07T09:29:15;15.45;;;7.53;;
75687;SDS011;64300;45.034;38.910;2022-12-07T09:31:41;17.92;;;7.95;;
75687;SDS011;64300;45.034;38.910;2022-12-07T09:36:33;19.85;;;8.07;;
75687;SDS011;64300;45.034;38.910;2022-12-07T09:41:27;19.27;;;7.20;;
75687;SDS011;64300;45.034;38.910;2022-12-07T09:43:58;17.55;;;7.97;;
75687;SDS011;64300;45.034;38.910;2022-12-07T09:46:38;23.80;;;8.88;;
75687;SDS011;64300;45.034;38.910;2022-12-07T09:49:08;19.95;;;8.18;;
75687;SDS011;64300;45.034;38.910;2022-12-07T09:51:38;20.63;;;8.80;;
75687;SDS011;64300;45.034;38.910;2022-12-07T09:54:04;27.98;;;9.35;;
75687;SDS011;64300;45.034;38.910;2022-12-07T09:56:36;20.25;;;9.35;;
75687;SDS011;64300;45.034;38.910;2022-12-07T09:59:02;20.98;;;9.43;;
75687;SDS011;64300;45.034;38.910;2022-12-07T10:01:29;19.52;;;8.63;;
75687;SDS011;64300;45.034;38.910;2022-12-07T10:06:40;20.33;;;7.90;;
75687;SDS011;64300;45.034;38.910;2022-12-07T10:09:11;24.98;;;9.13;;
75687;SDS011;64300;45.034;38.910;2022-12-07T10:14:28;22.05;;;9.18;;
75687;SDS011;64300;45.034;38.910;2022-12-07T10:16:55;19.15;;;8.73;;
75687;SDS011;64300;45.034;38.910;2022-12-07T10:22:09;23.58;;;8.32;;
75687;SDS011;64300;45.034;38.910;2022-12-07T10:24:39;18.25;;;8.18;;
75687;SDS011;64300;45.034;38.910;2022-12-07T10:27:17;20.02;;;7.78;;
75687;SDS011;64300;45.034;38.910;2022-12-07T10:29:55;18.60;;;8.05;;
75687;SDS011;64300;45.034;38.910;2022-12-07T10:32:31;18.73;;;7.53;;
75687;SDS011;64300;45.034;38.910;2022-12-07T10:37:53;18.15;;;7.60;;
75687;SDS011;64300;45.034;38.910;2022-12-07T10:40:33;19.77;;;8.30;;
75687;SDS011;64300;45.034;38.910;2022-12-07T10:49:04;18.67;;;7.97;;
75687;SDS011;64300;45.034;38.910;2022-12-07T10:52:05;16.17;;;7.38;;
75687;SDS011;64300;45.034;38.910;2022-12-07T10:57:30;20.90;;;7.88;;
75687;SDS011;64300;45.034;38.910;2022-12-07T11:03:06;13.95;;;6.20;;
75687;SDS011;64300;45.034;38.910;2022-12-07T11:06:08;19.13;;;7.97;;
75687;SDS011;64300;45.034;38.910;2022-12-07T11:11:36;20.05;;;8.25;;
75687;SDS011;64300;45.034;38.910;2022-12-07T11:17:11;12.98;;;5.57;;
75687;SDS011;64300;45.034;38.910;2022-12-07T11:20:02;20.90;;;9.27;;
75687;SDS011;64300;45.034;38.910;2022-12-07T11:29:03;16.63;;;7.25;;
75687;SDS011;64300;45.034;38.910;2022-12-07T11:38:16;16.70;;;7.72;;
75687;SDS011;64300;45.034;38.910;2022-12-07T11:40:58;22.10;;;8.35;;
75687;SDS011;64300;45.034;38.910;2022-12-07T11:43:41;13.85;;;6.85;;
75687;SDS011;64300;45.034;38.910;2022-12-07T11:46:18;16.60;;;6.80;;
75687;SDS011;64300;45.034;38.910;2022-12-07T11:49:03;15.70;;;6.50;;
75687;SDS011;64300;45.034;38.910;2022-12-07T11:51:36;20.88;;;7.38;;
75687;SDS011;64300;45.034;38.910;2022-12-07T11:54:09;17.38;;;7.63;;
75687;SDS011;64300;45.034;38.910;2022-12-07T11:56:47;21.15;;;7.15;;
75687;SDS011;64300;45.034;38.910;2022-12-07T11:59:29;29.13;;;8.02;;
75687;SDS011;64300;45.034;38.910;2022-12-07T12:02:13;14.07;;;6.90;;
75687;SDS011;64300;45.034;38.910;2022-12-07T12:05:12;16.27;;;6.60;;
75687;SDS011;64300;45.034;38.910;2022-12-07T12:07:48;19.45;;;7.55;;
75687;SDS011;64300;45.034;38.910;2022-12-07T12:10:24;17.45;;;6.95;;
75687;SDS011;64300;45.034;38.910;2022-12-07T12:13:14;16.85;;;6.95;;
75687;SDS011;64300;45.034;38.910;2022-12-07T12:16:19;16.48;;;6.93;;
75687;SDS011;64300;45.034;38.910;2022-12-07T12:19:19;16.08;;;7.10;;
75687;SDS011;64300;45.034;38.910;2022-12-07T12:21:56;16.55;;;6.85;;
75687;SDS011;64300;45.034;38.910;2022-12-07T12:24:31;18.70;;;7.13;;
75687;SDS011;64300;45.034;38.910;2022-12-07T12:27:47;20.25;;;8.07;;
75687;SDS011;64300;45.034;38.910;2022-12-07T12:33:28;13.25;;;6.00;;
75687;SDS011;64300;45.034;38.910;2022-12-07T12:36:17;14.73;;;6.35;;
75687;SDS011;64300;45.034;38.910;2022-12-07T12:46:52;14.23;;;6.75;;
75687;SDS011;64300;45.034;38.910;2022-12-07T12:51:51;14.75;;;6.55;;
75687;SDS011;64300;45.034;38.910;2022-12-07T12:54:22;17.63;;;7.18;;
75687;SDS011;64300;45.034;38.910;2022-12-07T12:59:33;18.98;;;7.93;;
75687;SDS011;64300;45.034;38.910;2022-12-07T13:05:03;15.25;;;6.80;;
75687;SDS011;64300;45.034;38.910;2022-12-07T13:13:02;16.55;;;6.97;;
75687;SDS011;64300;45.034;38.910;2022-12-07T13:19:48;17.98;;;7.28;;
75687;SDS011;64300;45.034;38.910;2022-12-07T13:27:47;16.92;;;7.07;;
75687;SDS011;64300;45.034;38.910;2022-12-07T13:30:26;18.67;;;8.38;;
75687;SDS011;64300;45.034;38.910;2022-12-07T13:32:55;22.23;;;9.05;;
75687;SDS011;64300;45.034;38.910;2022-12-07T13:35:34;23.67;;;8.57;;
75687;SDS011;64300;45.034;38.910;2022-12-07T13:38:04;22.52;;;8.63;;
75687;SDS011;64300;45.034;38.910;2022-12-07T13:41:16;25.55;;;8.95;;
75687;SDS011;64300;45.034;38.910;2022-12-07T13:43:55;28.75;;;9.82;;
75687;SDS011;64300;45.034;38.910;2022-12-07T13:46:32;20.13;;;8.82;;
75687;SDS011;64300;45.034;38.910;2022-12-07T13:49:18;23.60;;;9.32;;
75687;SDS011;64300;45.034;38.910;2022-12-07T13:51:55;17.50;;;8.05;;
75687;SDS011;64300;45.034;38.910;2022-12-07T13:54:43;24.13;;;9.70;;
75687;SDS011;64300;45.034;38.910;2022-12-07T13:57:11;24.88;;;8.73;;
75687;SDS011;64300;45.034;38.910;2022-12-07T13:59:50;22.10;;;9.05;;
75687;SDS011;64300;45.034;38.910;2022-12-07T14:05:05;21.23;;;8.65;;
75687;SDS011;64300;45.034;38.910;2022-12-07T14:10:39;22.30;;;8.80;;
75687;SDS011;64300;45.034;38.910;2022-12-07T14:15:59;22.55;;;8.65;;
75687;SDS011;64300;45.034;38.910;2022-12-07T14:24:11;23.30;;;8.73;;
75687;SDS011;64300;45.034;38.910;2022-12-07T14:26:44;23.45;;;8.90;;
75687;SDS011;64300;45.034;38.910;2022-12-07T14:29:29;18.48;;;8.77;;
75687;SDS011;64300;45.034;38.910;2022-12-07T14:32:23;28.17;;;9.00;;
75687;SDS011;64300;45.034;38.910;2022-12-07T14:35:27;26.27;;;9.52;;
75687;SDS011;64300;45.034;38.910;2022-12-07T14:38:25;22.15;;;8.75;;
75687;SDS011;64300;45.034;38.910;2022-12-07T14:41:00;17.48;;;8.18;;
75687;SDS011;64300;45.034;38.910;2022-12-07T14:43:46;20.70;;;8.60;;
75687;SDS011;64300;45.034;38.910;2022-12-07T14:46:13;23.05;;;9.82;;
75687;SDS011;64300;45.034;38.910;2022-12-07T14:48:49;22.10;;;8.88;;
75687;SDS011;64300;45.034;38.910;2022-12-07T14:51:42;20.88;;;8.93;;
75687;SDS011;64300;45.034;38.910;2022-12-07T14:54:16;27.15;;;9.45;;
75687;SDS011;64300;45.034;38.910;2022-12-07T14:56:44;19.10;;;8.52;;
75687;SDS011;64300;45.034;38.910;2022-12-07T14:59:14;24.20;;;9.25;;
75687;SDS011;64300;45.034;38.910;2022-12-07T15:01:42;20.05;;;9.15;;
75687;SDS011;64300;45.034;38.910;2022-12-07T15:04:14;20.40;;;8.20;;
75687;SDS011;64300;45.034;38.910;2022-12-07T15:07:00;23.00;;;8.30;;
75687;SDS011;64300;45.034;38.910;2022-12-07T15:09:29;24.02;;;8.68;;
75687;SDS011;64300;45.034;38.910;2022-12-07T15:11:58;21.63;;;9.13;;
75687;SDS011;64300;45.034;38.910;2022-12-07T15:14:25;24.10;;;8.50;;
75687;SDS011;64300;45.034;38.910;2022-12-07T15:16:51;19.50;;;9.07;;
75687;SDS011;64300;45.034;38.910;2022-12-07T15:21:58;19.23;;;8.32;;
75687;SDS011;64300;45.034;38.910;2022-12-07T15:24:27;24.10;;;8.82;;
75687;SDS011;64300;45.034;38.910;2022-12-07T15:26:55;22.33;;;8.80;;
75687;SDS011;64300;45.034;38.910;2022-12-07T15:29:25;26.52;;;8.65;;
75687;SDS011;64300;45.034;38.910;2022-12-07T15:31:51;21.08;;;8.50;;
75687;SDS011;64300;45.034;38.910;2022-12-07T15:34:18;23.30;;;8.68;;
75687;SDS011;64300;45.034;38.910;2022-12-07T15:36:53;20.85;;;7.68;;
75687;SDS011;64300;45.034;38.910;2022-12-07T15:39:38;21.90;;;8.18;;
75687;SDS011;64300;45.034;38.910;2022-12-07T15:42:25;21.67;;;8.63;;
75687;SDS011;64300;45.034;38.910;2022-12-07T15:54:30;23.05;;;8.45;;
75687;SDS011;64300;45.034;38.910;2022-12-07T15:57:09;23.38;;;8.30;;
75687;SDS011;64300;45.034;38.910;2022-12-07T16:03:49;17.35;;;7.78;;
75687;SDS011;64300;45.034;38.910;2022-12-07T16:06:45;20.50;;;7.38;;
75687;SDS011;64300;45.034;38.910;2022-12-07T16:12:26;21.30;;;8.70;;
75687;SDS011;64300;45.034;38.910;2022-12-07T16:15:13;18.05;;;7.63;;
75687;SDS011;64300;45.034;38.910;2022-12-07T16:21:29;23.13;;;8.43;;
75687;SDS011;64300;45.034;38.910;2022-12-07T16:24:11;17.98;;;8.73;;
75687;SDS011;64300;45.034;38.910;2022-12-07T16:27:25;19.20;;;7.65;;
75687;SDS011;64300;45.034;38.910;2022-12-07T16:38:04;16.60;;;7.60;;
75687;SDS011;64300;45.034;38.910;2022-12-07T16:40:39;19.42;;;8.02;;
75687;SDS011;64300;45.034;38.910;2022-12-07T16:43:45;16.85;;;6.68;;
75687;SDS011;64300;45.034;38.910;2022-12-07T16:46:16;18.63;;;7.13;;
75687;SDS011;64300;45.034;38.910;2022-12-07T16:48:42;18.33;;;6.68;;
75687;SDS011;64300;45.034;38.910;2022-12-07T16:51:10;16.92;;;7.05;;
75687;SDS011;64300;45.034;38.910;2022-12-07T16:53:38;15.80;;;6.93;;
75687;SDS011;64300;45.034;38.910;2022-12-07T16:56:12;16.33;;;7.03;;
75687;SDS011;64300;45.034;38.910;2022-12-07T16:58:52;14.98;;;7.45;;
75687;SDS011;64300;45.034;38.910;2022-12-07T17:01:21;14.38;;;6.55;;
75687;SDS011;64300;45.034;38.910;2022-12-07T17:03:55;17.27;;;7.55;;
75687;SDS011;64300;45.034;38.910;2022-12-07T17:06:25;27.23;;;7.15;;
75687;SDS011;64300;45.034;38.910;2022-12-07T17:09:04;18.50;;;7.88;;
75687;SDS011;64300;45.034;38.910;2022-12-07T17:11:35;17.83;;;7.82;;
75687;SDS011;64300;45.034;38.910;2022-12-07T17:14:07;23.27;;;8.48;;
75687;SDS011;64300;45.034;38.910;2022-12-07T17:17:33;16.65;;;7.00;;
75687;SDS011;64300;45.034;38.910;2022-12-07T17:20:02;22.88;;;7.00;;
75687;SDS011;64300;45.034;38.910;2022-12-07T17:22:29;16.92;;;6.38;;
75687;SDS011;64300;45.034;38.910;2022-12-07T17:27:21;20.58;;;6.57;;
75687;SDS011;64300;45.034;38.910;2022-12-07T17:37:47;13.65;;;6.30;;
75687;SDS011;64300;45.034;38.910;2022-12-07T18:03:10;11.40;;;5.70;;
75687;SDS011;64300;45.034;38.910;2022-12-07T18:05:41;13.13;;;6.13;;
75687;SDS011;64300;45.034;38.910;2022-12-07T18:08:25;12.73;;;6.00;;
75687;SDS011;64300;45.034;38.910;2022-12-07T18:10:57;15.27;;;6.28;;
75687;SDS011;64300;45.034;38.910;2022-12-07T18:13:24;23.27;;;7.25;;
75687;SDS011;64300;45.034;38.910;2022-12-07T18:16:06;13.00;;;6.15;;
75687;SDS011;64300;45.034;38.910;2022-12-07T18:18:46;11.60;;;5.15;;
75687;SDS011;64300;45.034;38.910;2022-12-07T18:21:22;14.43;;;6.40;;
75687;SDS011;64300;45.034;38.910;2022-12-07T18:46:30;13.10;;;5.53;;
75687;SDS011;64300;45.034;38.910;2022-12-07T18:50:07;9.88;;;4.85;;
75687;SDS011;64300;45.034;38.910;2022-12-07T18:52:33;13.82;;;5.60;;
75687;SDS011;64300;45.034;38.910;2022-12-07T18:54:59;12.55;;;5.95;;
75687;SDS011;64300;45.034;38.910;2022-12-07T18:57:27;16.20;;;6.18;;
75687;SDS011;64300;45.034;38.910;2022-12-07T18:59:56;12.10;;;5.95;;
75687;SDS011;64300;45.034;38.910;2022-12-07T19:02:22;12.35;;;5.93;;
75687;SDS011;64300;45.034;38.910;2022-12-07T19:04:48;11.90;;;5.82;;
75687;SDS011;64300;45.034;38.910;2022-12-07T19:07:17;14.68;;;6.55;;
75687;SDS011;64300;45.034;38.910;2022-12-07T19:09:52;15.93;;;5.65;;
75687;SDS011;64300;45.034;38.910;2022-12-07T19:12:18;12.20;;;5.82;;
75687;SDS011;64300;45.034;38.910;2022-12-07T19:14:44;13.13;;;6.60;;
75687;SDS011;64300;45.034;38.910;2022-12-07T19:17:11;18.42;;;6.30;;
75687;SDS011;64300;45.034;38.910;2022-12-07T19:19:39;14.98;;;6.90;;
75687;SDS011;64300;45.034;38.910;2022-12-07T19:22:10;14.65;;;6.00;;
75687;SDS011;64300;45.034;38.910;2022-12-07T19:24:38;21.52;;;5.45;;
75687;SDS011;64300;45.034;38.910;2022-12-07T19:27:05;12.07;;;5.93;;
75687;SDS011;64300;45.034;38.910;2022-12-07T19:29:32;14.48;;;5.88;;
75687;SDS011;64300;45.034;38.910;2022-12-07T19:31:59;14.40;;;6.63;;
75687;SDS011;64300;45.034;38.910;2022-12-07T19:34:26;16.35;;;6.40;;
75687;SDS011;64300;45.034;38.910;2022-12-07T19:36:52;13.65;;;5.25;;
75687;SDS011;64300;45.034;38.910;2022-12-07T19:39:18;14.95;;;6.55;;
75687;SDS011;64300;45.034;38.910;2022-12-07T19:41:44;13.25;;;5.70;;
75687;SDS011;64300;45.034;38.910;2022-12-07T19:44:15;12.43;;;5.65;;
75687;SDS011;64300;45.034;38.910;2022-12-07T19:46:43;15.13;;;6.22;;
75687;SDS011;64300;45.034;38.910;2022-12-07T19:49:11;13.50;;;6.03;;
75687;SDS011;64300;45.034;38.910;2022-12-07T19:51:41;14.60;;;6.43;;
75687;SDS011;64300;45.034;38.910;2022-12-07T19:54:10;11.27;;;6.03;;
75687;SDS011;64300;45.034;38.910;2022-12-07T19:56:39;12.75;;;6.30;;
75687;SDS011;64300;45.034;38.910;2022-12-07T19:59:06;12.48;;;5.85;;
75687;SDS011;64300;45.034;38.910;2022-12-07T20:01:32;15.65;;;5.55;;
75687;SDS011;64300;45.034;38.910;2022-12-07T20:03:58;21.35;;;6.40;;
75687;SDS011;64300;45.034;38.910;2022-12-07T20:06:25;15.40;;;6.28;;
75687;SDS011;64300;45.034;38.910;2022-12-07T20:08:51;13.57;;;6.30;;
75687;SDS011;64300;45.034;38.910;2022-12-07T20:11:18;11.20;;;5.45;;
75687;SDS011;64300;45.034;38.910;2022-12-07T20:14:06;15.63;;;5.20;;
75687;SDS011;64300;45.034;38.910;2022-12-07T20:16:33;11.45;;;5.35;;
75687;SDS011;64300;45.034;38.910;2022-12-07T20:19:00;14.27;;;5.97;;
75687;SDS011;64300;45.034;38.910;2022-12-07T20:21:26;10.25;;;5.28;;
75687;SDS011;64300;45.034;38.910;2022-12-07T20:23:52;11.48;;;5.57;;
75687;SDS011;64300;45.034;38.910;2022-12-07T20:26:21;11.55;;;5.35;;
75687;SDS011;64300;45.034;38.910;2022-12-07T20:28:47;12.52;;;5.47;;
75687;SDS011;64300;45.034;38.910;2022-12-07T20:31:14;11.40;;;4.80;;
75687;SDS011;64300;45.034;38.910;2022-12-07T20:33:41;10.95;;;5.47;;
75687;SDS011;64300;45.034;38.910;2022-12-07T20:36:12;13.07;;;5.90;;